Time;durP1;ratioP1;P1;durP2;ratioP2;P2;SDS_P1;SDS_P2;PMS_P1;PMS_P2;Temp;Humidity;BMP_temperature;BMP_pressure;BME280_temperature;BME280_humidity;BME280_pressure;Samples;Min_cycle;Max_cycle;Signal;HPM_P1;HPM_P2
2022/05/08 00:00:12;;;;;;;18.55;9.40;;;;;;;10.03;86.78;102638.06;4974015;28;20073;-68
2022/05/08 00:02:41;;;;;;;19.02;9.07;;;;;;;9.98;86.97;102645.34;4974166;28;20845;-68
2022/05/08 00:05:08;;;;;;;18.60;8.43;;;;;;;9.90;87.38;102644.72;4973086;28;20053;-67
2022/05/08 00:07:33;;;;;;;20.02;8.75;;;;;;;9.88;87.39;102646.53;4974523;28;20076;-68
2022/05/08 00:09:58;;;;;;;17.10;8.93;;;;;;;9.92;87.10;102650.00;4974085;28;20047;-68
2022/05/08 00:12:24;;;;;;;20.73;8.88;;;;;;;9.82;87.29;102644.94;4973648;28;20049;-68
2022/05/08 00:14:50;;;;;;;23.38;9.68;;;;;;;9.81;87.79;102640.53;4973260;28;20105;-69
2022/05/08 00:17:15;;;;;;;15.90;8.75;;;;;;;9.77;87.31;102643.34;4973741;28;20046;-68
2022/05/08 00:19:43;;;;;;;19.80;10.50;;;;;;;9.77;87.57;102641.56;4974253;28;20034;-68
2022/05/08 00:22:08;;;;;;;17.33;8.88;;;;;;;9.77;87.51;102643.34;4955365;28;20034;-68
2022/05/08 00:24:34;;;;;;;18.10;9.35;;;;;;;9.71;87.29;102655.06;4972773;28;20104;-68
2022/05/08 00:27:00;;;;;;;17.25;9.23;;;;;;;9.72;87.67;102647.94;4973866;28;20082;-68
2022/05/08 00:29:25;;;;;;;17.98;9.27;;;;;;;9.67;87.27;102649.88;4973214;28;20042;-68
2022/05/08 00:31:51;;;;;;;20.45;8.55;;;;;;;9.69;87.82;102654.25;4974045;28;20035;-69
2022/05/08 00:34:16;;;;;;;18.92;8.88;;;;;;;9.69;87.54;102653.34;4955482;28;20065;-69
2022/05/08 00:36:42;;;;;;;19.08;9.15;;;;;;;9.66;87.35;102648.16;4956649;28;20054;-68
2022/05/08 00:39:07;;;;;;;30.63;10.00;;;;;;;9.65;87.25;102652.59;4965324;28;20626;-68
2022/05/08 00:41:33;;;;;;;22.70;9.65;;;;;;;9.65;87.18;102657.06;4953970;28;21113;-68
2022/05/08 00:43:58;;;;;;;23.45;9.43;;;;;;;9.60;87.13;102659.84;4953832;28;20046;-68
2022/05/08 00:46:24;;;;;;;19.75;8.68;;;;;;;9.62;87.10;102654.47;4953128;28;20488;-69
2022/05/08 00:48:49;;;;;;;29.23;9.38;;;;;;;9.57;87.71;102655.47;4953856;28;20043;-69
2022/05/08 00:51:17;;;;;;;19.20;8.90;;;;;;;9.54;87.58;102652.06;4952740;28;20027;-68
2022/05/08 00:53:45;;;;;;;20.60;9.50;;;;;;;9.52;87.51;102652.09;4968816;28;20253;-68
2022/05/08 00:56:12;;;;;;;21.27;8.98;;;;;;;9.54;87.62;102652.94;4970706;28;20042;-68
2022/05/08 00:58:39;;;;;;;22.13;9.10;;;;;;;9.47;87.71;102654.00;4954155;28;20124;-69
2022/05/08 01:01:06;;;;;;;27.67;10.32;;;;;;;9.46;87.35;102656.72;4972268;28;20050;-68
2022/05/08 01:03:32;;;;;;;26.60;10.85;;;;;;;9.45;87.61;102650.53;4973415;28;20795;-68
2022/05/08 01:06:02;;;;;;;27.38;11.40;;;;;;;9.43;87.50;102656.81;4973246;28;20034;-68
2022/05/08 01:08:28;;;;;;;24.77;9.23;;;;;;;9.49;87.40;102657.53;4973601;28;20101;-68
2022/05/08 01:10:54;;;;;;;23.20;9.68;;;;;;;9.49;87.49;102657.53;4972772;28;20125;-69
2022/05/08 01:13:19;;;;;;;20.92;9.05;;;;;;;9.50;87.28;102650.41;4971469;28;20050;-68
2022/05/08 01:15:47;;;;;;;24.25;9.75;;;;;;;9.48;87.17;102661.06;4972425;28;20042;-68
2022/05/08 01:18:14;;;;;;;19.20;9.10;;;;;;;9.46;87.65;102654.94;4970954;28;20904;-67
2022/05/08 01:20:41;;;;;;;17.05;8.85;;;;;;;9.48;87.49;102661.06;4972524;28;20046;-67
2022/05/08 01:23:07;;;;;;;19.10;9.48;;;;;;;9.43;87.29;102659.47;4972549;28;20539;-68
2022/05/08 01:25:34;;;;;;;22.80;10.10;;;;;;;9.42;87.57;102660.41;4972858;28;20145;-67
2022/05/08 01:28:03;;;;;;;23.05;10.50;;;;;;;9.42;87.31;102660.41;4971976;28;20141;-67
2022/05/08 01:30:29;;;;;;;23.40;9.73;;;;;;;9.37;87.26;102664.97;4955310;28;20038;-67
2022/05/08 01:32:57;;;;;;;22.92;9.38;;;;;;;9.31;87.31;102660.72;4973327;28;20105;-68
2022/05/08 01:35:23;;;;;;;24.10;9.77;;;;;;;9.34;87.09;102668.63;4973375;28;20057;-68
2022/05/08 01:37:49;;;;;;;23.20;9.25;;;;;;;9.38;87.02;102670.25;4955759;28;20109;-68
2022/05/08 01:40:17;;;;;;;18.75;9.32;;;;;;;9.28;87.00;102674.09;4955187;28;20042;-67
2022/05/08 01:42:43;;;;;;;25.45;9.27;;;;;;;9.26;86.97;102681.25;4953917;28;20050;-67
2022/05/08 01:45:09;;;;;;;23.48;9.63;;;;;;;9.20;87.01;102677.00;4953357;28;20054;-68
2022/05/08 01:50:32;;;;;;;15.45;7.13;;;;;;;9.18;86.57;102675.28;4912413;29;21028;-67
2022/05/08 01:52:58;;;;;;;21.85;8.15;;;;;;;9.17;85.82;102673.53;4922396;29;20047;-68
2022/05/08 01:55:24;;;;;;;23.20;6.80;;;;;;;9.11;85.02;102665.72;4929710;29;20508;-67
2022/05/08 01:57:53;;;;;;;21.52;7.50;;;;;;;9.11;84.87;102668.38;4930820;29;20035;-67
2022/05/08 02:00:20;;;;;;;16.38;6.70;;;;;;;9.07;86.20;102676.44;4914680;29;20145;-67
2022/05/08 02:02:48;;;;;;;23.13;7.22;;;;;;;9.07;85.66;102676.44;4930661;29;20091;-67
2022/05/08 02:05:17;;;;;;;26.42;7.43;;;;;;;9.05;85.20;102672.97;4929933;29;20066;-67
2022/05/08 02:07:45;;;;;;;26.85;7.50;;;;;;;9.03;84.74;102680.09;4930284;28;20174;-68
2022/05/08 02:10:11;;;;;;;17.48;5.85;;;;;;;9.00;83.83;102680.19;4929854;29;20138;-69
2022/05/08 02:12:38;;;;;;;14.25;6.72;;;;;;;8.99;83.98;102681.13;4930427;29;20066;-69
2022/05/08 02:15:05;;;;;;;24.45;7.22;;;;;;;9.00;84.50;102682.00;4929705;28;20146;-69
2022/05/08 02:17:30;;;;;;;30.13;7.10;;;;;;;8.98;84.05;102682.00;4914153;29;20047;-68
2022/05/08 02:19:56;;;;;;;20.05;7.13;;;;;;;8.97;84.83;102674.94;4930247;29;20055;-69
2022/05/08 02:22:21;;;;;;;18.13;5.88;;;;;;;8.92;84.37;102683.97;4926717;28;20048;-68
2022/05/08 02:24:47;;;;;;;27.40;5.97;;;;;;;8.93;83.88;102673.28;4911160;29;20047;-69
2022/05/08 02:27:12;;;;;;;27.02;6.07;;;;;;;8.90;83.75;102689.34;4949269;28;20050;-68
2022/05/08 02:29:40;;;;;;;22.88;6.55;;;;;;;8.88;82.99;102679.66;4953298;28;20816;-68
2022/05/08 02:32:06;;;;;;;26.27;7.15;;;;;;;8.86;82.78;102682.34;4952263;28;20039;-68
2022/05/08 02:34:31;;;;;;;16.77;5.82;;;;;;;8.84;83.31;102681.53;4934374;28;20035;-68
2022/05/08 02:36:57;;;;;;;13.48;5.57;;;;;;;8.84;82.69;102686.84;4952701;28;20756;-68
2022/05/08 02:39:22;;;;;;;28.55;6.72;;;;;;;8.81;82.98;102686.94;4961553;28;20062;-68
2022/05/08 02:41:47;;;;;;;15.55;4.95;;;;;;;8.83;82.71;102690.41;4972340;28;20042;-68
2022/05/08 02:44:13;;;;;;;14.65;4.82;;;;;;;8.77;82.79;102685.25;4970760;28;20058;-68
2022/05/08 02:46:38;;;;;;;29.40;5.93;;;;;;;8.77;82.73;102690.56;4971062;28;20033;-68
2022/05/08 02:49:03;;;;;;;25.50;6.30;;;;;;;8.76;82.07;102689.69;4955276;28;20654;-69
2022/05/08 02:51:29;;;;;;;14.85;5.38;;;;;;;8.74;82.16;102690.66;4975285;28;20142;-69
2022/05/08 02:53:54;;;;;;;13.43;4.57;;;;;;;8.77;82.05;102686.13;4975009;28;20546;-69
2022/05/08 02:59:10;;;;;;;21.70;5.18;;;;;;;8.73;81.76;102694.22;4975096;28;20038;-68
2022/05/08 03:01:36;;;;;;;28.40;5.28;;;;;;;8.69;81.39;102682.81;4976107;28;20077;-69
2022/05/08 03:04:04;;;;;;;14.45;4.85;;;;;;;8.68;81.38;102682.81;4958542;28;20038;-69
2022/05/08 03:06:30;;;;;;;18.60;4.72;;;;;;;8.68;81.65;102689.00;4976453;28;20046;-68
2022/05/08 03:08:55;;;;;;;23.33;5.45;;;;;;;8.65;81.44;102685.59;4976017;28;20803;-68
2022/05/08 03:11:27;;;;;;;15.93;3.65;;;;;;;8.59;80.96;102686.63;4974791;28;20397;-68
2022/05/08 03:13:54;;;;;;;13.57;4.30;;;;;;;8.61;81.50;102690.09;4975350;28;20041;-69
2022/05/08 03:16:19;;;;;;;25.92;4.60;;;;;;;8.60;81.85;102684.81;4973374;28;20111;-69
2022/05/08 03:18:45;;;;;;;22.92;5.22;;;;;;;8.57;82.02;102683.09;4975741;28;20030;-70
2022/05/08 03:21:13;;;;;;;22.23;4.78;;;;;;;8.63;81.28;102682.06;4969692;28;20567;-69
2022/05/08 03:23:40;;;;;;;13.77;4.70;;;;;;;8.54;81.68;102684.06;4954116;28;21058;-69
2022/05/08 03:26:06;;;;;;;26.30;5.70;;;;;;;8.57;81.44;102685.75;4954831;28;20295;-69
2022/05/08 03:28:32;;;;;;;17.63;5.30;;;;;;;8.57;81.12;102683.97;4955513;28;20766;-68
2022/05/08 03:31:01;;;;;;;26.52;5.63;;;;;;;8.51;81.90;102694.78;4954952;28;20114;-69
2022/05/08 03:33:28;;;;;;;24.38;4.45;;;;;;;8.52;81.22;102688.53;4953472;28;20070;-68
2022/05/08 03:35:54;;;;;;;21.40;5.18;;;;;;;8.45;82.26;102686.97;4937473;28;20579;-69
2022/05/08 03:38:19;;;;;;;27.92;5.70;;;;;;;8.49;82.63;102693.09;4956479;28;20046;-68
2022/05/08 03:40:45;;;;;;;26.40;5.82;;;;;;;8.50;81.53;102697.47;4974740;28;20050;-68
2022/05/08 03:43:10;;;;;;;21.75;4.68;;;;;;;8.47;82.28;102697.53;4956288;28;20053;-68
2022/05/08 03:45:35;;;;;;;24.65;5.35;;;;;;;8.49;81.64;102696.59;4974836;28;20053;-68
2022/05/08 03:48:01;;;;;;;27.65;5.15;;;;;;;8.46;81.17;102702.00;4974239;28;20049;-67
2022/05/08 03:50:28;;;;;;;17.85;4.68;;;;;;;8.48;81.77;102705.50;4974223;28;20046;-68
2022/05/08 03:52:55;;;;;;;16.73;4.68;;;;;;;8.51;80.93;102705.41;4973727;28;20770;-67
2022/05/08 03:55:21;;;;;;;12.50;4.82;;;;;;;8.41;81.20;102711.88;4973452;28;20125;-68
2022/05/08 03:57:46;;;;;;;15.80;5.35;;;;;;;8.42;80.88;102712.72;4974484;28;20046;-67
2022/05/08 04:00:14;;;;;;;21.63;5.10;;;;;;;8.42;81.64;102707.41;4971869;28;20124;-68
2022/05/08 04:02:39;;;;;;;15.07;5.82;;;;;;;8.40;81.74;102715.44;4974070;28;20043;-67
2022/05/08 04:05:06;;;;;;;16.90;4.85;;;;;;;8.40;81.40;102718.09;4972315;28;20112;-68
2022/05/08 04:07:31;;;;;;;16.75;3.90;;;;;;;8.46;81.04;102715.28;4973197;28;20038;-68
2022/05/08 04:09:57;;;;;;;27.98;5.85;;;;;;;8.44;81.48;102710.94;4974574;28;20042;-67
2022/05/08 04:12:23;;;;;;;21.17;5.43;;;;;;;8.42;82.09;102708.28;4973806;28;20467;-68
2022/05/08 04:14:49;;;;;;;19.95;5.18;;;;;;;8.42;81.81;102712.72;4973316;28;20038;-68
2022/05/08 04:17:15;;;;;;;19.95;5.53;;;;;;;8.41;81.74;102717.19;4972582;28;20226;-68
2022/05/08 04:19:42;;;;;;;16.42;5.45;;;;;;;8.42;81.03;102713.59;4955854;28;20034;-68
2022/05/08 04:24:52;;;;;;;16.10;4.53;;;;;;;8.34;80.71;102718.22;4973689;28;20069;-67
2022/05/08 04:27:18;;;;;;;17.05;4.70;;;;;;;8.41;80.57;102727.81;4971786;28;20145;-67
2022/05/08 04:29:43;;;;;;;24.95;4.95;;;;;;;8.40;80.33;102718.09;4974065;28;20725;-68
2022/05/08 04:32:08;;;;;;;23.48;5.10;;;;;;;8.40;80.78;102725.19;4973750;28;20852;-68
2022/05/08 04:34:34;;;;;;;18.73;4.78;;;;;;;8.41;80.52;102722.50;4956186;28;20080;-68
2022/05/08 04:36:59;;;;;;;15.60;4.95;;;;;;;8.42;80.62;102734.88;4973377;28;20042;-68
2022/05/08 04:39:25;;;;;;;21.08;4.72;;;;;;;8.46;80.51;102727.72;4971907;28;20062;-68
2022/05/08 04:41:50;;;;;;;22.38;5.25;;;;;;;8.88;79.02;102733.72;4956531;28;20124;-68
2022/05/08 04:44:16;;;;;;;24.55;4.60;;;;;;;9.21;77.39;102737.28;4972626;28;20050;-68
2022/05/08 04:46:41;;;;;;;18.55;4.80;;;;;;;9.37;77.20;102740.41;4974315;28;20458;-68
2022/05/08 04:49:06;;;;;;;22.15;5.25;;;;;;;9.80;75.71;102742.72;4972748;28;20124;-68
2022/05/08 04:51:33;;;;;;;14.55;5.28;;;;;;;9.69;75.12;102744.81;4973465;28;20277;-68
2022/05/08 04:53:59;;;;;;;24.88;4.80;;;;;;;9.19;77.01;102739.13;4956024;28;20870;-69
2022/05/08 04:56:24;;;;;;;19.52;4.60;;;;;;;9.24;77.13;102739.00;4973424;28;20042;-71
2022/05/08 04:58:50;;;;;;;13.68;4.30;;;;;;;9.51;75.92;102742.69;4972928;28;20042;-68
2022/05/08 05:01:15;;;;;;;19.73;4.45;;;;;;;9.26;77.02;102740.69;4973291;28;20038;-68
2022/05/08 05:03:41;;;;;;;19.25;4.47;;;;;;;9.12;77.46;102745.53;4973036;28;20042;-68
2022/05/08 05:06:07;;;;;;;19.92;4.32;;;;;;;8.87;78.42;102752.41;4972715;28;20038;-68
2022/05/08 05:08:33;;;;;;;22.48;5.80;;;;;;;9.27;77.56;102744.22;4971587;28;20034;-69
2022/05/08 05:19:06;;;;;;;20.27;5.00;;;;;;;9.97;75.47;102754.66;4853061;23;20472;-69
2022/05/08 05:21:32;;;;;;;15.02;4.15;;;;;;;10.15;75.15;102755.91;4925641;29;20733;-69
2022/05/08 05:23:57;;;;;;;11.73;4.63;;;;;;;10.11;74.86;102752.44;4916465;29;20039;-69
2022/05/08 05:26:23;;;;;;;22.85;4.75;;;;;;;10.42;74.33;102757.72;4912461;29;20046;-69
2022/05/08 07:51:59;;;;;;;5.85;3.00;;;;;;;13.25;58.99;102838.09;5430692;23;20056;-89
2022/05/08 07:54:25;;;;;;;7.80;3.22;;;;;;;13.67;59.34;102835.38;4902243;29;20040;-91
2022/05/08 07:56:54;;;;;;;10.15;2.47;;;;;;;13.63;60.21;102835.59;4901634;29;20043;-93
2022/05/08 07:59:20;;;;;;;13.23;2.78;;;;;;;13.65;57.83;102844.41;4875776;29;20055;-92
2022/05/08 08:01:45;;;;;;;20.95;3.50;;;;;;;13.87;57.44;102836.31;4910520;29;20039;-92
2022/05/08 08:04:12;;;;;;;13.45;2.95;;;;;;;13.44;57.92;102831.00;4889994;29;20314;-91
2022/05/08 08:06:54;;;;;;;4.95;2.58;;;;;;;14.28;57.65;102833.53;4917813;29;20101;-95
2022/05/08 08:09:21;;;;;;;;;;;;;;;13.94;59.71;102841.31;4903211;29;20027;-94
2022/05/08 08:11:47;;;;;;;12.93;3.25;;;;;;;13.89;58.97;102829.91;4917196;29;20177;-93
2022/05/08 08:14:15;;;;;;;12.07;4.13;;;;;;;13.79;59.57;102835.75;4921589;29;20039;-94
2022/05/08 08:16:46;;;;;;;12.52;3.25;;;;;;;14.22;56.88;102843.59;4902996;29;20541;-95
2022/05/08 08:19:13;;;;;;;9.52;2.30;;;;;;;14.32;58.28;102845.84;4916987;29;20035;-94
2022/05/08 08:21:49;;;;;;;7.63;2.97;;;;;;;14.21;55.28;102849.91;4900245;29;20036;-95
2022/05/08 08:24:14;;;;;;;11.18;2.97;;;;;;;14.80;56.63;102849.84;4907267;29;20052;-93
2022/05/08 08:26:57;;;;;;;12.52;3.15;;;;;;;14.38;56.22;102851.81;4895643;29;20083;-95
2022/05/08 08:29:31;;;;;;;17.08;3.33;;;;;;;13.56;56.89;102847.53;4907371;29;20032;-94
2022/05/08 08:31:57;;;;;;;8.57;2.90;;;;;;;14.12;57.47;102844.09;4910610;29;20510;-95
2022/05/08 08:34:23;;;;;;;5.00;2.83;;;;;;;13.67;57.46;102845.25;4915733;29;20067;-94
2022/05/08 08:36:51;;;;;;;9.07;2.67;;;;;;;14.12;58.24;102847.66;4890799;29;20865;-94
2022/05/08 08:39:17;;;;;;;6.72;2.75;;;;;;;13.90;56.68;102850.44;4899511;29;20051;-94
2022/05/08 08:41:55;;;;;;;8.82;3.30;;;;;;;14.16;56.90;102851.94;4920137;29;20027;-93
2022/05/08 08:50:04;;;;;;;10.85;3.28;;;;;;;14.11;58.12;102851.28;4927946;29;20175;-95
2022/05/08 08:52:30;;;;;;;11.90;3.20;;;;;;;14.28;56.74;102852.31;4900068;29;20051;-96
2022/05/08 08:54:57;;;;;;;8.23;2.95;;;;;;;14.25;56.23;102850.63;4910004;29;20198;-95
2022/05/08 08:57:25;;;;;;;10.73;3.13;;;;;;;14.42;59.67;102849.84;4910522;29;20066;-94
2022/05/08 08:59:54;;;;;;;9.55;3.17;;;;;;;13.92;57.50;102858.41;4892243;29;20036;-95
2022/05/08 09:02:26;;;;;;;9.63;3.13;;;;;;;14.79;61.30;102848.09;4899179;29;20047;-95
2022/05/08 09:04:55;;;;;;;8.27;2.63;;;;;;;14.37;56.64;102855.44;4919724;29;20249;-95
2022/05/08 09:07:42;;;;;;;10.48;3.67;;;;;;;14.81;56.54;102848.88;4927657;29;20052;-93
2022/05/08 09:10:13;;;;;;;9.65;3.17;;;;;;;14.91;59.48;102845.69;4887680;29;20474;-93
2022/05/08 09:12:42;;;;;;;5.63;2.60;;;;;;;14.14;56.87;102858.31;4885115;29;20042;-95
2022/05/08 09:15:21;;;;;;;6.63;3.08;;;;;;;13.56;56.63;102855.56;4913347;29;20790;-94
2022/05/08 09:17:50;;;;;;;14.60;3.60;;;;;;;14.62;59.27;102857.00;4897577;29;20042;-94
2022/05/08 09:20:43;;;;;;;15.07;4.13;;;;;;;14.57;57.54;102859.03;4903887;29;20032;-95
2022/05/08 09:23:12;;;;;;;8.88;3.53;;;;;;;14.60;57.47;102857.03;4885200;29;20396;-96
2022/05/08 09:25:47;;;;;;;5.43;2.97;;;;;;;14.14;57.33;102850.25;4901447;29;20074;-95
2022/05/08 09:28:21;;;;;;;7.95;3.10;;;;;;;14.49;55.15;102851.31;4884562;29;20507;-94
2022/05/08 09:30:54;;;;;;;4.53;2.70;;;;;;;14.64;57.15;102844.34;4881294;29;20044;-93
2022/05/08 09:33:37;;;;;;;4.93;2.58;;;;;;;14.25;58.42;102853.31;4902429;29;20462;-93
2022/05/08 09:36:22;;;;;;;;;;;;;;;14.23;54.52;102845.34;4879582;29;20051;-95
2022/05/08 09:38:54;;;;;;;4.43;2.38;;;;;;;14.28;56.53;102847.81;4896866;29;20370;-94
2022/05/08 09:41:23;;;;;;;9.70;3.67;;;;;;;14.30;55.92;102847.72;4882423;29;20040;-93
2022/05/08 09:43:51;;;;;;;7.97;3.10;;;;;;;14.88;56.46;102847.66;4889023;29;20424;-93
2022/05/08 09:46:20;;;;;;;8.38;3.67;;;;;;;14.83;56.92;102833.59;4876318;29;20062;-92
2022/05/08 09:48:46;;;;;;;11.43;4.00;;;;;;;15.07;56.72;102832.34;4891526;29;20877;-94
2022/05/08 09:51:15;;;;;;;16.20;4.28;;;;;;;15.38;59.56;102839.72;4882372;29;20062;-93
2022/05/08 09:53:46;;;;;;;15.57;4.00;;;;;;;15.14;58.81;102836.47;4889487;29;20119;-95
2022/05/08 09:56:24;;;;;;;9.48;3.53;;;;;;;15.37;53.78;102829.06;4890251;29;20040;-93
2022/05/08 09:58:49;;;;;;;11.60;3.15;;;;;;;15.82;55.66;102822.25;4881086;29;20032;-93
2022/05/08 10:01:16;;;;;;;12.23;2.83;;;;;;;15.09;57.88;102833.13;4886264;29;20108;-93
2022/05/08 10:03:43;;;;;;;6.32;2.78;;;;;;;15.23;53.27;102816.31;4898158;29;20099;-92
2022/05/08 10:06:09;;;;;;;11.32;4.07;;;;;;;15.53;54.78;102814.72;4880034;29;20048;-93
2022/05/08 10:08:39;;;;;;;14.02;3.33;;;;;;;14.82;56.04;102819.28;4887196;29;20032;-93
2022/05/08 10:14:00;;;;;;;15.77;2.87;;;;;;;15.62;53.09;102821.44;4893115;29;20040;-93
2022/05/08 10:16:45;;;;;;;;;;;;;;;15.38;51.44;102825.41;4890270;29;20949;-94
2022/05/08 10:19:19;;;;;;;11.73;3.78;;;;;;;15.59;53.84;102821.59;4884651;29;19923;-95
2022/05/08 10:22:06;;;;;;;10.82;3.00;;;;;;;15.34;56.04;102822.00;4878821;29;20040;-94
2022/05/08 10:24:42;;;;;;;6.85;3.20;;;;;;;15.56;56.69;102821.75;4902498;29;20553;-93
2022/05/08 10:27:39;;;;;;;9.00;3.55;;;;;;;15.76;56.34;102826.09;4886907;29;20045;-93
2022/05/08 10:30:04;;;;;;;5.78;2.92;;;;;;;15.75;52.27;102822.53;4906660;29;20040;-95
2022/05/08 10:32:45;;;;;;;8.00;3.05;;;;;;;15.67;54.75;102826.63;4886583;29;20043;-94
2022/05/08 10:35:18;;;;;;;4.20;2.88;;;;;;;14.84;54.44;102822.75;4886612;29;20047;-95
2022/05/08 10:37:47;;;;;;;10.48;2.60;;;;;;;15.66;55.77;102817.69;4887002;29;20028;-94
2022/05/08 10:40:22;;;;;;;7.88;2.65;;;;;;;15.49;52.61;102814.97;4896359;29;20063;-94
2022/05/08 10:43:25;;;;;;;5.57;2.55;;;;;;;14.94;52.19;102818.66;4896735;29;20048;-95
2022/05/08 10:45:52;;;;;;;7.75;3.17;;;;;;;15.60;52.81;102801.81;4884600;29;20035;-94
2022/05/08 10:48:22;;;;;;;8.90;2.30;;;;;;;15.00;50.24;102814.78;4898566;29;20059;-95
2022/05/08 10:50:51;;;;;;;7.18;2.78;;;;;;;15.53;50.13;102812.03;4910144;29;20042;-94
2022/05/08 10:53:43;;;;;;;3.67;2.60;;;;;;;15.07;50.33;102799.25;4882462;29;20052;-94
2022/05/08 10:56:13;;;;;;;5.18;2.78;;;;;;;15.71;55.30;102798.56;4901143;29;20048;-94
2022/05/08 10:59:06;;;;;;;;;;;;;;;;;;;;;
2022/05/08 11:01:40;;;;;;;9.75;3.08;;;;;;;15.57;53.92;102802.00;4880534;29;20031;-95
2022/05/08 11:04:10;;;;;;;12.02;2.63;;;;;;;15.79;52.22;102805.28;4880651;29;20044;-94
2022/05/08 11:06:36;;;;;;;3.10;2.40;;;;;;;15.68;50.74;102801.44;4906676;29;20051;-94
2022/05/08 11:09:05;;;;;;;10.23;2.58;;;;;;;16.08;51.65;102800.16;4888166;29;20359;-96
2022/05/08 11:11:33;;;;;;;5.50;2.67;;;;;;;16.24;49.59;102794.78;4899182;29;20180;-94
2022/05/08 11:14:05;;;;;;;11.48;2.65;;;;;;;16.03;51.45;102802.22;4903495;29;20106;-96
2022/05/08 11:16:41;;;;;;;3.92;2.35;;;;;;;16.00;53.47;102781.72;4892488;29;20047;-96
2022/05/08 11:19:06;;;;;;;4.43;2.35;;;;;;;15.90;50.30;102796.63;4885562;29;20043;-95
2022/05/08 11:21:33;;;;;;;6.13;2.90;;;;;;;15.67;48.88;102797.91;4881838;29;20130;-94
2022/05/08 11:23:59;;;;;;;5.13;2.10;;;;;;;16.21;51.95;102793.13;4907160;29;20116;-95
2022/05/08 11:26:39;;;;;;;5.85;2.65;;;;;;;16.22;51.65;102797.56;4913447;29;20075;-95
2022/05/08 11:29:22;;;;;;;6.95;2.45;;;;;;;16.08;47.76;102796.59;4885253;29;20052;-96
2022/05/08 11:38:34;;;;;;;4.60;2.28;;;;;;;16.55;54.73;102791.22;4889501;29;20484;-96
2022/05/08 11:40:55;;;;;;;6.60;2.60;;;;;;;16.42;52.92;102788.38;4871959;29;20056;-95
2022/05/08 11:43:44;;;;;;;4.68;2.60;;;;;;;16.94;48.74;102771.88;4888741;29;20470;-95
2022/05/08 11:46:16;;;;;;;5.60;2.53;;;;;;;16.30;47.35;102789.03;4899258;29;20044;-93
2022/05/08 11:48:47;;;;;;;7.00;2.80;;;;;;;16.48;47.74;102779.94;4914710;29;20036;-95
2022/05/08 11:51:15;;;;;;;8.98;2.50;;;;;;;16.36;48.25;102775.22;4893660;29;20043;-95
2022/05/08 11:53:46;;;;;;;5.97;2.22;;;;;;;17.01;50.24;102775.94;4905260;29;20047;-96
2022/05/08 11:56:21;;;;;;;4.82;2.45;;;;;;;17.15;49.05;102766.16;4881990;29;20537;-96
2022/05/08 11:58:57;;;;;;;2.75;2.00;;;;;;;17.16;47.88;102773.28;4899154;29;20107;-94
2022/05/08 12:01:27;;;;;;;14.30;3.65;;;;;;;16.69;50.80;102771.56;4878997;29;20146;-95
2022/05/08 12:03:54;;;;;;;7.47;2.20;;;;;;;16.92;54.64;102770.22;4893530;29;20142;-95
2022/05/08 12:06:24;;;;;;;4.65;2.28;;;;;;;16.55;49.01;102772.34;4879370;29;20134;-94
2022/05/08 12:08:53;;;;;;;4.88;2.20;;;;;;;16.62;48.17;102756.69;4883216;29;20039;-96
2022/05/08 12:11:31;;;;;;;5.03;2.58;;;;;;;16.38;47.24;102762.56;4897411;29;20035;-96
2022/05/08 12:14:05;;;;;;;6.03;2.20;;;;;;;16.70;50.65;102758.00;4869576;29;20048;-95
2022/05/08 12:17:01;;;;;;;6.93;2.67;;;;;;;17.05;48.40;102747.84;4883709;29;20032;-95
2022/05/08 12:19:29;;;;;;;4.18;2.42;;;;;;;17.32;48.85;102753.41;4890387;29;20048;-96
2022/05/08 12:22:16;;;;;;;3.97;2.28;;;;;;;16.67;48.87;102754.63;4909533;29;20042;-96
2022/05/08 12:24:45;;;;;;;5.57;2.47;;;;;;;16.87;45.83;102742.69;4890270;29;20536;-95
2022/05/08 12:27:15;;;;;;;6.93;2.65;;;;;;;17.31;48.11;102743.56;4871344;29;20540;-96
2022/05/08 12:29:48;;;;;;;5.55;2.53;;;;;;;17.28;48.51;102737.50;4874097;29;20047;-96
2022/05/08 12:32:30;;;;;;;8.48;3.05;;;;;;;17.34;43.79;102732.59;4886775;29;20444;-96
2022/05/08 12:35:08;;;;;;;8.32;2.33;;;;;;;17.55;47.57;102726.81;4875609;29;20028;-96
2022/05/08 12:37:34;;;;;;;3.75;2.10;;;;;;;17.45;48.64;102729.22;4879041;29;20560;-95
2022/05/08 12:40:00;;;;;;;6.70;2.42;;;;;;;17.42;48.32;102729.44;4891125;29;20142;-95
2022/05/08 12:42:36;;;;;;;4.85;2.08;;;;;;;17.39;46.65;102726.06;4923563;29;20040;-96
2022/05/08 12:45:29;;;;;;;5.95;2.70;;;;;;;17.72;50.36;102725.75;4874710;29;20050;-96
2022/05/08 12:50:52;;;;;;;2.10;1.77;;;;;;;17.41;46.06;102729.50;4879175;29;20542;-67
2022/05/08 12:53:17;;;;;;;6.55;2.35;;;;;;;17.84;43.53;102723.19;4875946;29;20569;-67
2022/05/08 12:55:43;;;;;;;9.25;2.63;;;;;;;17.90;44.06;102731.84;4879134;29;20036;-67
2022/05/08 13:00:52;;;;;;;7.82;2.30;;;;;;;17.63;45.25;102719.13;4863366;29;20091;-66
2022/05/08 13:03:17;;;;;;;5.00;2.50;;;;;;;17.04;45.56;102719.16;4880513;29;20752;-65
2022/05/08 13:05:44;;;;;;;7.65;2.30;;;;;;;17.44;43.14;102715.84;4884641;29;20127;-67
2022/05/08 13:08:09;;;;;;;9.40;2.65;;;;;;;17.47;45.74;102718.34;4875266;29;20055;-66
2022/05/08 13:10:35;;;;;;;2.53;2.25;;;;;;;17.55;44.86;102718.72;4873018;29;20048;-66
2022/05/08 13:13:01;;;;;;;8.93;2.42;;;;;;;17.33;46.11;102717.38;4886250;29;20080;-66
2022/05/08 13:15:27;;;;;;;7.68;2.20;;;;;;;17.39;45.11;102709.88;4882294;29;20115;-67
2022/05/08 13:17:52;;;;;;;5.35;2.03;;;;;;;17.23;44.90;102710.81;4878879;29;20116;-67
2022/05/08 13:20:18;;;;;;;6.20;2.25;;;;;;;17.47;43.59;102711.13;4870236;29;20098;-66
2022/05/08 13:22:43;;;;;;;9.65;2.45;;;;;;;17.93;43.25;102705.53;4858249;29;20437;-67
2022/05/08 13:25:10;;;;;;;4.00;2.40;;;;;;;18.25;42.54;102698.03;4884136;29;20045;-66
2022/05/08 13:27:35;;;;;;;4.32;2.50;;;;;;;18.21;42.17;102696.47;4881096;29;20135;-67
2022/05/08 13:30:02;;;;;;;4.47;1.80;;;;;;;17.96;45.21;102702.63;4875933;29;20047;-66
2022/05/08 13:32:28;;;;;;;8.82;2.10;;;;;;;17.86;45.43;102702.34;4869614;29;20044;-66
2022/05/08 13:34:53;;;;;;;3.58;1.80;;;;;;;17.35;44.95;102710.06;4878480;29;20597;-67
2022/05/08 13:37:19;;;;;;;5.57;2.28;;;;;;;17.28;43.19;102705.16;4890551;29;20094;-67
2022/05/08 13:39:44;;;;;;;3.08;1.80;;;;;;;17.20;41.53;102696.66;4846504;29;20080;-67
2022/05/08 13:42:15;;;;;;;7.35;2.05;;;;;;;17.51;43.40;102691.06;4886079;29;20048;-67
2022/05/08 13:44:41;;;;;;;11.13;2.63;;;;;;;17.69;43.58;102686.34;4875083;29;20879;-67
2022/05/08 13:47:07;;;;;;;8.57;2.58;;;;;;;17.53;43.51;102689.16;4865863;29;20152;-67
2022/05/08 13:49:32;;;;;;;7.47;2.20;;;;;;;18.02;40.00;102680.66;4865001;29;20207;-67
2022/05/08 13:51:58;;;;;;;4.10;2.05;;;;;;;17.98;48.07;102678.25;4877365;29;20084;-67
2022/05/08 13:54:23;;;;;;;6.82;2.58;;;;;;;18.05;45.22;102679.56;4872082;29;20047;-69
2022/05/08 13:56:51;;;;;;;10.48;3.33;;;;;;;18.21;44.18;102682.13;4871882;29;20075;-68
2022/05/08 13:59:16;;;;;;;3.67;1.75;;;;;;;17.47;44.52;102680.56;4861634;29;20054;-67
2022/05/08 14:01:42;;;;;;;4.78;2.03;;;;;;;17.69;41.04;102675.56;4879666;29;20048;-69
2022/05/08 14:04:08;;;;;;;9.32;1.98;;;;;;;17.68;43.27;102668.44;4885782;29;20039;-66
2022/05/08 14:06:37;;;;;;;4.90;2.05;;;;;;;17.78;46.29;102666.06;4875180;29;20770;-66
2022/05/08 14:09:03;;;;;;;6.93;1.95;;;;;;;17.85;45.40;102668.22;4868075;29;20045;-67
2022/05/08 14:11:28;;;;;;;6.80;1.98;;;;;;;17.81;43.33;102669.38;4864393;29;20048;-67
2022/05/08 14:13:56;;;;;;;2.17;1.90;;;;;;;17.69;43.46;102656.66;4890484;29;20028;-67
2022/05/08 14:16:21;;;;;;;5.95;1.95;;;;;;;17.99;45.87;102666.47;4875592;29;20848;-67
2022/05/08 14:18:46;;;;;;;8.70;1.92;;;;;;;17.91;38.94;102656.16;4882607;29;20067;-67
2022/05/08 14:21:12;;;;;;;3.60;1.70;;;;;;;17.67;38.15;102658.63;4858611;29;20036;-67
2022/05/08 14:23:40;;;;;;;9.10;2.63;;;;;;;17.71;43.41;102662.81;4885576;29;20060;-67
2022/05/08 14:26:06;;;;;;;2.47;1.67;;;;;;;17.53;43.24;102661.31;4877869;29;20817;-67
2022/05/08 14:28:32;;;;;;;12.55;2.35;;;;;;;17.51;41.74;102655.16;4880424;29;20826;-67
2022/05/08 14:36:26;;;;;;;2.22;1.60;;;;;;;17.62;44.98;102636.47;4880461;29;20067;-67
2022/05/08 14:38:51;;;;;;;6.25;2.50;;;;;;;18.15;43.88;102629.38;4883458;29;20047;-68